sensor_id;sensor_type;location;lat;lon;timestamp;temperature;humidity
13115;DHT22;6623;52.120;8.660;2022-12-11T00:01:10;2.90;73.80
13115;DHT22;6623;52.120;8.660;2022-12-11T00:03:36;2.90;73.90
13115;DHT22;6623;52.120;8.660;2022-12-11T00:06:07;3.00;74.00
13115;DHT22;6623;52.120;8.660;2022-12-11T00:08:32;3.00;74.00
13115;DHT22;6623;52.120;8.660;2022-12-11T00:10:58;3.00;73.90
13115;DHT22;6623;52.120;8.660;2022-12-11T00:13:24;4.40;74.80
13115;DHT22;6623;52.120;8.660;2022-12-11T00:15:49;2.80;73.80
13115;DHT22;6623;52.120;8.660;2022-12-11T00:18:15;2.90;73.20
13115;DHT22;6623;52.120;8.660;2022-12-11T00:20:41;2.70;73.80
13115;DHT22;6623;52.120;8.660;2022-12-11T00:23:07;4.20;74.60
13115;DHT22;6623;52.120;8.660;2022-12-11T00:25:32;4.10;74.40
13115;DHT22;6623;52.120;8.660;2022-12-11T00:27:58;3.80;74.30
13115;DHT22;6623;52.120;8.660;2022-12-11T00:30:23;2.80;73.80
13115;DHT22;6623;52.120;8.660;2022-12-11T00:32:52;3.90;74.40
13115;DHT22;6623;52.120;8.660;2022-12-11T00:35:18;2.90;74.00
13115;DHT22;6623;52.120;8.660;2022-12-11T00:37:43;2.90;73.90
13115;DHT22;6623;52.120;8.660;2022-12-11T00:40:09;3.00;73.90
13115;DHT22;6623;52.120;8.660;2022-12-11T00:42:35;3.00;74.00
13115;DHT22;6623;52.120;8.660;2022-12-11T00:45:00;2.90;73.90
13115;DHT22;6623;52.120;8.660;2022-12-11T00:47:26;2.90;74.00
13115;DHT22;6623;52.120;8.660;2022-12-11T00:49:52;2.90;74.00
13115;DHT22;6623;52.120;8.660;2022-12-11T00:52:17;2.90;74.10
13115;DHT22;6623;52.120;8.660;2022-12-11T00:54:43;3.00;74.10
13115;DHT22;6623;52.120;8.660;2022-12-11T00:57:08;3.00;74.00
13115;DHT22;6623;52.120;8.660;2022-12-11T00:59:34;3.00;74.00
13115;DHT22;6623;52.120;8.660;2022-12-11T01:01:59;3.00;73.90
13115;DHT22;6623;52.120;8.660;2022-12-11T01:04:25;2.90;74.00
13115;DHT22;6623;52.120;8.660;2022-12-11T01:06:50;2.90;74.10
13115;DHT22;6623;52.120;8.660;2022-12-11T01:09:16;3.20;74.30
13115;DHT22;6623;52.120;8.660;2022-12-11T01:12:00;3.00;74.10
13115;DHT22;6623;52.120;8.660;2022-12-11T01:14:26;3.00;74.20
13115;DHT22;6623;52.120;8.660;2022-12-11T01:16:51;2.90;74.00
13115;DHT22;6623;52.120;8.660;2022-12-11T01:19:17;3.00;74.10
13115;DHT22;6623;52.120;8.660;2022-12-11T01:21:43;2.90;74.00
13115;DHT22;6623;52.120;8.660;2022-12-11T01:24:09;3.00;73.80
13115;DHT22;6623;52.120;8.660;2022-12-11T01:26:34;3.00;74.40
13115;DHT22;6623;52.120;8.660;2022-12-11T01:29:00;2.90;73.70
13115;DHT22;6623;52.120;8.660;2022-12-11T01:31:26;2.90;73.70
13115;DHT22;6623;52.120;8.660;2022-12-11T01:33:53;2.90;73.80
13115;DHT22;6623;52.120;8.660;2022-12-11T01:36:21;3.00;74.00
13115;DHT22;6623;52.120;8.660;2022-12-11T01:38:47;3.00;74.00
13115;DHT22;6623;52.120;8.660;2022-12-11T01:41:14;3.00;73.90
13115;DHT22;6623;52.120;8.660;2022-12-11T01:43:59;3.00;73.90
13115;DHT22;6623;52.120;8.660;2022-12-11T01:46:26;3.00;73.80
13115;DHT22;6623;52.120;8.660;2022-12-11T01:48:53;2.90;73.80
13115;DHT22;6623;52.120;8.660;2022-12-11T01:51:19;2.90;73.90
13115;DHT22;6623;52.120;8.660;2022-12-11T01:53:58;2.90;74.10
13115;DHT22;6623;52.120;8.660;2022-12-11T01:56:25;2.90;74.20
13115;DHT22;6623;52.120;8.660;2022-12-11T01:58:55;2.90;74.30
13115;DHT22;6623;52.120;8.660;2022-12-11T02:01:29;2.90;74.30
13115;DHT22;6623;52.120;8.660;2022-12-11T02:03:56;2.90;74.40
13115;DHT22;6623;52.120;8.660;2022-12-11T02:06:40;2.90;74.40
13115;DHT22;6623;52.120;8.660;2022-12-11T02:09:09;2.90;74.40
13115;DHT22;6623;52.120;8.660;2022-12-11T02:17:10;2.90;74.40
13115;DHT22;6623;52.120;8.660;2022-12-11T02:20:08;2.90;74.40
13115;DHT22;6623;52.120;8.660;2022-12-11T02:23:41;2.90;74.40
13115;DHT22;6623;52.120;8.660;2022-12-11T02:25:56;2.90;74.50
13115;DHT22;6623;52.120;8.660;2022-12-11T02:28:53;2.90;74.40
13115;DHT22;6623;52.120;8.660;2022-12-11T02:31:38;2.90;74.50
13115;DHT22;6623;52.120;8.660;2022-12-11T02:34:32;2.80;74.40
13115;DHT22;6623;52.120;8.660;2022-12-11T02:37:06;3.60;74.90
13115;DHT22;6623;52.120;8.660;2022-12-11T02:39:35;2.90;74.50
13115;DHT22;6623;52.120;8.660;2022-12-11T02:42:03;2.90;74.50
13115;DHT22;6623;52.120;8.660;2022-12-11T02:44:32;3.00;74.60
13115;DHT22;6623;52.120;8.660;2022-12-11T02:47:00;2.90;74.50
13115;DHT22;6623;52.120;8.660;2022-12-11T02:49:28;2.90;74.60
13115;DHT22;6623;52.120;8.660;2022-12-11T02:51:55;3.00;74.60
13115;DHT22;6623;52.120;8.660;2022-12-11T02:54:26;2.90;74.50
13115;DHT22;6623;52.120;8.660;2022-12-11T02:57:11;2.90;74.70
13115;DHT22;6623;52.120;8.660;2022-12-11T02:59:41;2.90;74.70
13115;DHT22;6623;52.120;8.660;2022-12-11T03:02:08;3.00;74.70
13115;DHT22;6623;52.120;8.660;2022-12-11T03:04:35;3.00;74.80
13115;DHT22;6623;52.120;8.660;2022-12-11T03:07:05;3.00;74.80
13115;DHT22;6623;52.120;8.660;2022-12-11T03:09:37;3.40;75.00
13115;DHT22;6623;52.120;8.660;2022-12-11T03:12:05;3.00;74.80
13115;DHT22;6623;52.120;8.660;2022-12-11T03:14:31;3.00;74.90
13115;DHT22;6623;52.120;8.660;2022-12-11T03:17:18;3.00;74.90
13115;DHT22;6623;52.120;8.660;2022-12-11T03:19:54;3.00;74.90
13115;DHT22;6623;52.120;8.660;2022-12-11T03:22:32;2.90;74.80
13115;DHT22;6623;52.120;8.660;2022-12-11T03:27:39;3.10;74.90
13115;DHT22;6623;52.120;8.660;2022-12-11T03:30:10;3.10;74.80
13115;DHT22;6623;52.120;8.660;2022-12-11T03:32:48;3.00;74.90
13115;DHT22;6623;52.120;8.660;2022-12-11T03:35:27;3.00;75.10
13115;DHT22;6623;52.120;8.660;2022-12-11T03:37:57;3.00;75.30
13115;DHT22;6623;52.120;8.660;2022-12-11T03:40:26;3.00;75.40
13115;DHT22;6623;52.120;8.660;2022-12-11T03:42:55;3.00;75.50
13115;DHT22;6623;52.120;8.660;2022-12-11T03:45:21;2.90;75.40
13115;DHT22;6623;52.120;8.660;2022-12-11T03:47:49;2.90;75.90
13115;DHT22;6623;52.120;8.660;2022-12-11T03:50:17;3.00;75.90
13115;DHT22;6623;52.120;8.660;2022-12-11T03:52:45;2.90;75.80
13115;DHT22;6623;52.120;8.660;2022-12-11T03:55:15;2.90;76.00
13115;DHT22;6623;52.120;8.660;2022-12-11T03:57:41;2.90;76.00
13115;DHT22;6623;52.120;8.660;2022-12-11T04:00:09;2.90;76.10
13115;DHT22;6623;52.120;8.660;2022-12-11T04:02:35;2.90;76.30
13115;DHT22;6623;52.120;8.660;2022-12-11T04:05:01;2.90;76.40
13115;DHT22;6623;52.120;8.660;2022-12-11T04:07:27;2.90;76.50
13115;DHT22;6623;52.120;8.660;2022-12-11T04:09:53;3.00;76.70
13115;DHT22;6623;52.120;8.660;2022-12-11T04:12:19;3.00;76.80
13115;DHT22;6623;52.120;8.660;2022-12-11T04:14:44;3.00;76.70
13115;DHT22;6623;52.120;8.660;2022-12-11T04:17:33;3.00;76.70
13115;DHT22;6623;52.120;8.660;2022-12-11T04:20:18;3.00;76.60
13115;DHT22;6623;52.120;8.660;2022-12-11T04:23:10;3.00;76.70
13115;DHT22;6623;52.120;8.660;2022-12-11T04:26:05;3.00;76.80
13115;DHT22;6623;52.120;8.660;2022-12-11T04:28:31;3.00;76.90
13115;DHT22;6623;52.120;8.660;2022-12-11T04:30:56;3.00;76.90
13115;DHT22;6623;52.120;8.660;2022-12-11T04:33:22;2.90;76.80
13115;DHT22;6623;52.120;8.660;2022-12-11T04:35:47;2.90;77.00
13115;DHT22;6623;52.120;8.660;2022-12-11T04:38:13;2.80;77.10
13115;DHT22;6623;52.120;8.660;2022-12-11T04:40:38;2.90;77.40
13115;DHT22;6623;52.120;8.660;2022-12-11T04:43:04;2.80;77.40
13115;DHT22;6623;52.120;8.660;2022-12-11T04:45:30;2.80;77.50
13115;DHT22;6623;52.120;8.660;2022-12-11T04:47:55;2.80;77.70
13115;DHT22;6623;52.120;8.660;2022-12-11T04:50:21;2.70;77.80
13115;DHT22;6623;52.120;8.660;2022-12-11T04:52:46;2.80;78.40
13115;DHT22;6623;52.120;8.660;2022-12-11T04:55:12;2.80;78.40
13115;DHT22;6623;52.120;8.660;2022-12-11T04:57:38;3.30;78.20
13115;DHT22;6623;52.120;8.660;2022-12-11T05:00:06;2.70;78.00
13115;DHT22;6623;52.120;8.660;2022-12-11T05:02:36;2.70;78.10
13115;DHT22;6623;52.120;8.660;2022-12-11T05:05:04;2.80;78.20
13115;DHT22;6623;52.120;8.660;2022-12-11T05:07:31;2.80;78.30
13115;DHT22;6623;52.120;8.660;2022-12-11T05:09:56;2.70;78.20
13115;DHT22;6623;52.120;8.660;2022-12-11T05:12:22;2.70;78.40
13115;DHT22;6623;52.120;8.660;2022-12-11T05:14:51;2.70;78.40
13115;DHT22;6623;52.120;8.660;2022-12-11T05:17:17;2.80;78.60
13115;DHT22;6623;52.120;8.660;2022-12-11T05:19:43;2.80;78.60
13115;DHT22;6623;52.120;8.660;2022-12-11T05:22:08;2.80;78.70
13115;DHT22;6623;52.120;8.660;2022-12-11T05:24:34;2.80;78.70
13115;DHT22;6623;52.120;8.660;2022-12-11T05:27:00;2.80;78.70
13115;DHT22;6623;52.120;8.660;2022-12-11T05:29:25;2.80;78.70
13115;DHT22;6623;52.120;8.660;2022-12-11T05:31:51;2.80;78.80
13115;DHT22;6623;52.120;8.660;2022-12-11T05:34:16;2.80;78.90
13115;DHT22;6623;52.120;8.660;2022-12-11T05:36:42;2.80;79.00
13115;DHT22;6623;52.120;8.660;2022-12-11T05:39:07;2.80;79.00
13115;DHT22;6623;52.120;8.660;2022-12-11T05:41:34;2.90;79.30
13115;DHT22;6623;52.120;8.660;2022-12-11T05:43:59;2.90;79.30
13115;DHT22;6623;52.120;8.660;2022-12-11T05:46:27;2.90;79.30
13115;DHT22;6623;52.120;8.660;2022-12-11T05:48:56;2.90;79.20
13115;DHT22;6623;52.120;8.660;2022-12-11T05:51:22;3.00;79.30
13115;DHT22;6623;52.120;8.660;2022-12-11T05:53:49;3.00;79.20
13115;DHT22;6623;52.120;8.660;2022-12-11T05:56:23;3.10;79.30
13115;DHT22;6623;52.120;8.660;2022-12-11T05:58:50;3.00;79.30
13115;DHT22;6623;52.120;8.660;2022-12-11T06:01:24;3.00;79.20
13115;DHT22;6623;52.120;8.660;2022-12-11T06:03:52;2.90;79.10
13115;DHT22;6623;52.120;8.660;2022-12-11T06:06:17;2.90;79.20
13115;DHT22;6623;52.120;8.660;2022-12-11T06:08:43;2.90;79.30
13115;DHT22;6623;52.120;8.660;2022-12-11T06:11:11;2.90;79.30
13115;DHT22;6623;52.120;8.660;2022-12-11T06:13:38;2.90;79.20
13115;DHT22;6623;52.120;8.660;2022-12-11T06:16:05;2.90;79.30
13115;DHT22;6623;52.120;8.660;2022-12-11T06:18:31;2.90;79.20
13115;DHT22;6623;52.120;8.660;2022-12-11T06:20:59;2.80;79.10
13115;DHT22;6623;52.120;8.660;2022-12-11T06:23:25;2.80;79.20
13115;DHT22;6623;52.120;8.660;2022-12-11T06:25:50;2.90;79.30
13115;DHT22;6623;52.120;8.660;2022-12-11T06:28:16;2.90;79.50
13115;DHT22;6623;52.120;8.660;2022-12-11T06:30:41;2.80;79.50
13115;DHT22;6623;52.120;8.660;2022-12-11T06:33:07;2.90;79.60
13115;DHT22;6623;52.120;8.660;2022-12-11T06:35:33;2.90;79.40
13115;DHT22;6623;52.120;8.660;2022-12-11T06:37:58;3.00;79.30
13115;DHT22;6623;52.120;8.660;2022-12-11T06:40:24;2.90;79.20
13115;DHT22;6623;52.120;8.660;2022-12-11T06:42:49;2.90;79.10
13115;DHT22;6623;52.120;8.660;2022-12-11T06:45:15;2.90;79.10
13115;DHT22;6623;52.120;8.660;2022-12-11T06:47:40;2.90;79.20
13115;DHT22;6623;52.120;8.660;2022-12-11T06:50:06;2.80;79.20
13115;DHT22;6623;52.120;8.660;2022-12-11T06:52:32;2.80;79.30
13115;DHT22;6623;52.120;8.660;2022-12-11T06:54:57;2.80;79.30
13115;DHT22;6623;52.120;8.660;2022-12-11T06:57:23;2.80;79.40
13115;DHT22;6623;52.120;8.660;2022-12-11T06:59:49;2.80;79.30
13115;DHT22;6623;52.120;8.660;2022-12-11T07:02:16;2.80;79.30
13115;DHT22;6623;52.120;8.660;2022-12-11T07:04:42;2.80;79.40
13115;DHT22;6623;52.120;8.660;2022-12-11T07:07:08;2.70;79.30
13115;DHT22;6623;52.120;8.660;2022-12-11T07:09:34;2.70;79.30
13115;DHT22;6623;52.120;8.660;2022-12-11T07:12:00;2.80;79.50
13115;DHT22;6623;52.120;8.660;2022-12-11T07:14:25;2.80;79.60
13115;DHT22;6623;52.120;8.660;2022-12-11T07:16:51;2.70;79.40
13115;DHT22;6623;52.120;8.660;2022-12-11T07:19:17;2.70;79.40
13115;DHT22;6623;52.120;8.660;2022-12-11T07:21:42;2.70;79.30
13115;DHT22;6623;52.120;8.660;2022-12-11T07:24:08;2.80;79.20
13115;DHT22;6623;52.120;8.660;2022-12-11T07:26:34;2.70;79.00
13115;DHT22;6623;52.120;8.660;2022-12-11T07:29:00;2.70;78.80
13115;DHT22;6623;52.120;8.660;2022-12-11T07:31:27;2.60;78.60
13115;DHT22;6623;52.120;8.660;2022-12-11T07:33:57;2.60;78.60
13115;DHT22;6623;52.120;8.660;2022-12-11T07:36:24;2.60;78.70
13115;DHT22;6623;52.120;8.660;2022-12-11T07:38:49;2.60;79.40
13115;DHT22;6623;52.120;8.660;2022-12-11T07:41:16;2.50;78.70
13115;DHT22;6623;52.120;8.660;2022-12-11T07:43:42;2.60;78.70
13115;DHT22;6623;52.120;8.660;2022-12-11T07:46:14;2.60;78.60
13115;DHT22;6623;52.120;8.660;2022-12-11T07:48:42;2.60;78.60
13115;DHT22;6623;52.120;8.660;2022-12-11T07:51:11;2.70;78.70
13115;DHT22;6623;52.120;8.660;2022-12-11T07:53:39;2.60;78.60
13115;DHT22;6623;52.120;8.660;2022-12-11T07:56:05;2.70;78.60
13115;DHT22;6623;52.120;8.660;2022-12-11T07:58:31;2.70;78.50
13115;DHT22;6623;52.120;8.660;2022-12-11T08:00:57;2.70;78.40
13115;DHT22;6623;52.120;8.660;2022-12-11T08:03:22;2.70;78.40
13115;DHT22;6623;52.120;8.660;2022-12-11T08:05:48;2.70;78.30
13115;DHT22;6623;52.120;8.660;2022-12-11T08:08:15;2.70;78.10
13115;DHT22;6623;52.120;8.660;2022-12-11T08:10:41;2.70;78.10
13115;DHT22;6623;52.120;8.660;2022-12-11T08:13:06;2.70;78.00
13115;DHT22;6623;52.120;8.660;2022-12-11T08:15:32;2.60;78.10
13115;DHT22;6623;52.120;8.660;2022-12-11T08:17:58;2.60;78.10
13115;DHT22;6623;52.120;8.660;2022-12-11T08:20:23;2.70;78.30
13115;DHT22;6623;52.120;8.660;2022-12-11T08:22:49;2.70;78.20
13115;DHT22;6623;52.120;8.660;2022-12-11T08:25:15;2.60;78.10
13115;DHT22;6623;52.120;8.660;2022-12-11T08:27:40;2.60;78.10
13115;DHT22;6623;52.120;8.660;2022-12-11T08:30:07;2.80;78.10
13115;DHT22;6623;52.120;8.660;2022-12-11T08:32:33;2.70;77.90
13115;DHT22;6623;52.120;8.660;2022-12-11T08:34:59;2.70;78.00
13115;DHT22;6623;52.120;8.660;2022-12-11T08:37:25;2.70;78.00
13115;DHT22;6623;52.120;8.660;2022-12-11T08:39:51;2.70;77.80
13115;DHT22;6623;52.120;8.660;2022-12-11T08:42:16;2.70;77.70
13115;DHT22;6623;52.120;8.660;2022-12-11T08:44:42;2.70;77.60
13115;DHT22;6623;52.120;8.660;2022-12-11T08:47:08;2.70;77.50
13115;DHT22;6623;52.120;8.660;2022-12-11T08:49:36;3.20;77.80
13115;DHT22;6623;52.120;8.660;2022-12-11T08:52:03;3.00;77.80
13115;DHT22;6623;52.120;8.660;2022-12-11T08:54:29;2.80;77.50
13115;DHT22;6623;52.120;8.660;2022-12-11T08:56:55;2.80;77.50
13115;DHT22;6623;52.120;8.660;2022-12-11T08:59:21;2.80;77.30
13115;DHT22;6623;52.120;8.660;2022-12-11T09:01:46;3.00;77.40
13115;DHT22;6623;52.120;8.660;2022-12-11T09:04:12;2.80;77.20
13115;DHT22;6623;52.120;8.660;2022-12-11T09:06:38;2.80;77.20
13115;DHT22;6623;52.120;8.660;2022-12-11T09:09:04;2.80;77.10
13115;DHT22;6623;52.120;8.660;2022-12-11T09:11:32;2.80;77.00
13115;DHT22;6623;52.120;8.660;2022-12-11T09:13:58;2.80;76.90
13115;DHT22;6623;52.120;8.660;2022-12-11T09:16:25;2.70;76.80
13115;DHT22;6623;52.120;8.660;2022-12-11T09:18:53;2.80;76.70
13115;DHT22;6623;52.120;8.660;2022-12-11T09:21:22;2.70;76.80
13115;DHT22;6623;52.120;8.660;2022-12-11T09:23:51;2.70;76.80
13115;DHT22;6623;52.120;8.660;2022-12-11T09:26:17;2.70;76.70
13115;DHT22;6623;52.120;8.660;2022-12-11T09:28:46;2.80;76.90
13115;DHT22;6623;52.120;8.660;2022-12-11T09:31:21;2.90;76.90
13115;DHT22;6623;52.120;8.660;2022-12-11T09:33:48;2.80;76.80
13115;DHT22;6623;52.120;8.660;2022-12-11T09:36:14;2.70;76.70
13115;DHT22;6623;52.120;8.660;2022-12-11T09:38:39;2.80;76.80
13115;DHT22;6623;52.120;8.660;2022-12-11T09:43:48;2.90;76.70
13115;DHT22;6623;52.120;8.660;2022-12-11T09:46:18;2.70;76.50
13115;DHT22;6623;52.120;8.660;2022-12-11T09:48:46;3.70;77.10
13115;DHT22;6623;52.120;8.660;2022-12-11T09:51:38;2.90;76.70
13115;DHT22;6623;52.120;8.660;2022-12-11T09:54:06;3.00;76.80
13115;DHT22;6623;52.120;8.660;2022-12-11T09:56:38;4.60;77.50
13115;DHT22;6623;52.120;8.660;2022-12-11T10:00:05;3.00;76.30
13115;DHT22;6623;52.120;8.660;2022-12-11T10:16:46;3.10;75.60
13115;DHT22;6623;52.120;8.660;2022-12-11T10:19:28;2.90;75.40
13115;DHT22;6623;52.120;8.660;2022-12-11T10:21:54;2.90;75.40
13115;DHT22;6623;52.120;8.660;2022-12-11T10:24:54;2.90;75.60
13115;DHT22;6623;52.120;8.660;2022-12-11T10:27:23;2.90;75.60
13115;DHT22;6623;52.120;8.660;2022-12-11T10:29:58;2.90;75.40
13115;DHT22;6623;52.120;8.660;2022-12-11T10:32:37;2.90;75.30
13115;DHT22;6623;52.120;8.660;2022-12-11T10:35:10;3.30;75.60
13115;DHT22;6623;52.120;8.660;2022-12-11T10:37:41;2.90;75.40
13115;DHT22;6623;52.120;8.660;2022-12-11T10:40:07;3.00;75.60
13115;DHT22;6623;52.120;8.660;2022-12-11T10:42:33;3.00;75.50
13115;DHT22;6623;52.120;8.660;2022-12-11T10:45:01;3.00;75.40
13115;DHT22;6623;52.120;8.660;2022-12-11T10:47:27;3.00;75.40
13115;DHT22;6623;52.120;8.660;2022-12-11T10:49:56;3.00;75.30
13115;DHT22;6623;52.120;8.660;2022-12-11T10:52:36;3.00;75.30
13115;DHT22;6623;52.120;8.660;2022-12-11T10:55:23;3.10;75.30
13115;DHT22;6623;52.120;8.660;2022-12-11T10:57:56;3.00;75.20
13115;DHT22;6623;52.120;8.660;2022-12-11T11:00:33;3.00;75.00
13115;DHT22;6623;52.120;8.660;2022-12-11T11:03:01;3.00;75.00
13115;DHT22;6623;52.120;8.660;2022-12-11T11:05:35;3.00;75.00
13115;DHT22;6623;52.120;8.660;2022-12-11T11:08:14;3.10;74.70
13115;DHT22;6623;52.120;8.660;2022-12-11T11:10:55;3.10;75.20
13115;DHT22;6623;52.120;8.660;2022-12-11T11:13:23;3.20;74.70
13115;DHT22;6623;52.120;8.660;2022-12-11T11:16:03;3.10;74.60
13115;DHT22;6623;52.120;8.660;2022-12-11T11:18:30;3.00;74.50
13115;DHT22;6623;52.120;8.660;2022-12-11T11:20:57;3.00;74.50
13115;DHT22;6623;52.120;8.660;2022-12-11T11:23:23;3.00;74.60
13115;DHT22;6623;52.120;8.660;2022-12-11T11:25:58;3.10;74.70
13115;DHT22;6623;52.120;8.660;2022-12-11T11:28:33;3.10;74.50
13115;DHT22;6623;52.120;8.660;2022-12-11T11:31:08;3.10;74.30
13115;DHT22;6623;52.120;8.660;2022-12-11T11:33:35;3.10;74.30
13115;DHT22;6623;52.120;8.660;2022-12-11T11:36:06;3.10;74.20
13115;DHT22;6623;52.120;8.660;2022-12-11T11:41:33;3.20;74.00
13115;DHT22;6623;52.120;8.660;2022-12-11T11:44:05;3.10;73.80
13115;DHT22;6623;52.120;8.660;2022-12-11T11:46:43;3.10;73.80
13115;DHT22;6623;52.120;8.660;2022-12-11T11:51:56;3.10;73.90
13115;DHT22;6623;52.120;8.660;2022-12-11T11:54:38;3.10;74.00
13115;DHT22;6623;52.120;8.660;2022-12-11T11:57:22;3.10;74.00
13115;DHT22;6623;52.120;8.660;2022-12-11T11:59:55;3.20;74.10
13115;DHT22;6623;52.120;8.660;2022-12-11T12:02:23;3.20;74.00
13115;DHT22;6623;52.120;8.660;2022-12-11T12:04:48;3.10;74.00
13115;DHT22;6623;52.120;8.660;2022-12-11T12:07:36;3.10;74.00
13115;DHT22;6623;52.120;8.660;2022-12-11T12:13:31;3.20;74.10
13115;DHT22;6623;52.120;8.660;2022-12-11T12:16:00;3.20;74.10
13115;DHT22;6623;52.120;8.660;2022-12-11T12:21:37;3.20;73.90
13115;DHT22;6623;52.120;8.660;2022-12-11T12:27:02;3.10;74.20
13115;DHT22;6623;52.120;8.660;2022-12-11T12:30:03;3.10;74.30
13115;DHT22;6623;52.120;8.660;2022-12-11T12:32:52;3.00;74.30
13115;DHT22;6623;52.120;8.660;2022-12-11T12:35:47;3.00;74.40
13115;DHT22;6623;52.120;8.660;2022-12-11T12:43:41;3.00;74.40
13115;DHT22;6623;52.120;8.660;2022-12-11T12:48:48;2.90;74.70
13115;DHT22;6623;52.120;8.660;2022-12-11T12:51:15;2.90;74.80
13115;DHT22;6623;52.120;8.660;2022-12-11T12:53:47;2.90;74.80
13115;DHT22;6623;52.120;8.660;2022-12-11T12:56:15;2.90;74.80
13115;DHT22;6623;52.120;8.660;2022-12-11T12:58:43;3.00;75.00
13115;DHT22;6623;52.120;8.660;2022-12-11T13:01:19;3.00;74.90
13115;DHT22;6623;52.120;8.660;2022-12-11T13:09:16;2.90;74.70
13115;DHT22;6623;52.120;8.660;2022-12-11T13:11:44;2.90;74.80
13115;DHT22;6623;52.120;8.660;2022-12-11T13:16:41;2.90;74.80
13115;DHT22;6623;52.120;8.660;2022-12-11T13:22:20;3.00;75.00
13115;DHT22;6623;52.120;8.660;2022-12-11T13:27:40;3.00;75.10
13115;DHT22;6623;52.120;8.660;2022-12-11T13:35:24;3.10;74.60
13115;DHT22;6623;52.120;8.660;2022-12-11T13:37:51;3.10;74.50
13115;DHT22;6623;52.120;8.660;2022-12-11T13:40:33;3.10;74.50
13115;DHT22;6623;52.120;8.660;2022-12-11T13:43:17;3.10;74.40
13115;DHT22;6623;52.120;8.660;2022-12-11T13:45:54;3.10;74.50
13115;DHT22;6623;52.120;8.660;2022-12-11T13:48:44;3.10;74.50
13115;DHT22;6623;52.120;8.660;2022-12-11T13:51:19;3.10;74.50
13115;DHT22;6623;52.120;8.660;2022-12-11T13:53:45;3.10;74.50
13115;DHT22;6623;52.120;8.660;2022-12-11T13:56:18;3.10;74.60
13115;DHT22;6623;52.120;8.660;2022-12-11T13:58:44;3.10;74.60
13115;DHT22;6623;52.120;8.660;2022-12-11T14:01:14;3.10;74.70
13115;DHT22;6623;52.120;8.660;2022-12-11T14:03:59;3.20;74.70
13115;DHT22;6623;52.120;8.660;2022-12-11T14:06:26;3.20;74.50
13115;DHT22;6623;52.120;8.660;2022-12-11T14:08:56;3.10;74.30
13115;DHT22;6623;52.120;8.660;2022-12-11T14:11:26;3.10;74.30
13115;DHT22;6623;52.120;8.660;2022-12-11T14:13:56;3.10;74.30
13115;DHT22;6623;52.120;8.660;2022-12-11T14:16:23;3.10;74.30
13115;DHT22;6623;52.120;8.660;2022-12-11T14:18:50;3.10;74.30
13115;DHT22;6623;52.120;8.660;2022-12-11T14:21:21;3.10;74.30
13115;DHT22;6623;52.120;8.660;2022-12-11T14:23:56;3.10;74.30
13115;DHT22;6623;52.120;8.660;2022-12-11T14:26:27;3.00;74.40
13115;DHT22;6623;52.120;8.660;2022-12-11T14:28:54;3.10;74.50
13115;DHT22;6623;52.120;8.660;2022-12-11T14:31:28;3.10;74.50
13115;DHT22;6623;52.120;8.660;2022-12-11T14:34:24;3.10;74.40
13115;DHT22;6623;52.120;8.660;2022-12-11T14:36:48;3.10;74.40
13115;DHT22;6623;52.120;8.660;2022-12-11T14:39:27;3.00;74.40
13115;DHT22;6623;52.120;8.660;2022-12-11T14:42:11;3.00;74.30
13115;DHT22;6623;52.120;8.660;2022-12-11T14:45:05;3.00;74.40
13115;DHT22;6623;52.120;8.660;2022-12-11T14:47:38;3.00;74.40
13115;DHT22;6623;52.120;8.660;2022-12-11T14:52:52;3.00;74.50
13115;DHT22;6623;52.120;8.660;2022-12-11T14:55:24;3.00;74.60
13115;DHT22;6623;52.120;8.660;2022-12-11T14:57:55;3.00;74.70
13115;DHT22;6623;52.120;8.660;2022-12-11T15:00:30;3.00;74.70
13115;DHT22;6623;52.120;8.660;2022-12-11T15:03:06;3.00;74.90
13115;DHT22;6623;52.120;8.660;2022-12-11T15:05:33;3.00;74.80
13115;DHT22;6623;52.120;8.660;2022-12-11T15:08:01;3.00;74.80
13115;DHT22;6623;52.120;8.660;2022-12-11T15:10:37;3.00;74.70
13115;DHT22;6623;52.120;8.660;2022-12-11T15:13:06;3.00;74.70
13115;DHT22;6623;52.120;8.660;2022-12-11T15:15:44;3.00;74.70
13115;DHT22;6623;52.120;8.660;2022-12-11T15:18:35;3.00;74.70
13115;DHT22;6623;52.120;8.660;2022-12-11T15:21:06;3.00;74.60
13115;DHT22;6623;52.120;8.660;2022-12-11T15:23:49;3.00;74.70
13115;DHT22;6623;52.120;8.660;2022-12-11T15:26:17;3.00;74.70
13115;DHT22;6623;52.120;8.660;2022-12-11T15:28:42;3.00;74.90
13115;DHT22;6623;52.120;8.660;2022-12-11T15:31:29;3.00;74.90
13115;DHT22;6623;52.120;8.660;2022-12-11T15:33:55;3.00;74.90
13115;DHT22;6623;52.120;8.660;2022-12-11T15:38:55;3.00;74.90
13115;DHT22;6623;52.120;8.660;2022-12-11T15:41:21;3.00;75.00
13115;DHT22;6623;52.120;8.660;2022-12-11T15:43:49;2.90;75.00
13115;DHT22;6623;52.120;8.660;2022-12-11T15:46:16;3.00;75.10
13115;DHT22;6623;52.120;8.660;2022-12-11T15:48:42;3.00;75.10
13115;DHT22;6623;52.120;8.660;2022-12-11T15:51:08;3.00;75.20
13115;DHT22;6623;52.120;8.660;2022-12-11T15:53:34;3.00;75.10
13115;DHT22;6623;52.120;8.660;2022-12-11T15:56:00;3.00;75.00
13115;DHT22;6623;52.120;8.660;2022-12-11T15:58:26;3.00;75.10
13115;DHT22;6623;52.120;8.660;2022-12-11T16:00:52;2.90;75.00
13115;DHT22;6623;52.120;8.660;2022-12-11T16:03:19;2.90;75.00
13115;DHT22;6623;52.120;8.660;2022-12-11T16:05:45;2.90;75.10
13115;DHT22;6623;52.120;8.660;2022-12-11T16:08:16;2.90;75.20
13115;DHT22;6623;52.120;8.660;2022-12-11T16:10:43;2.90;75.20
13115;DHT22;6623;52.120;8.660;2022-12-11T16:13:10;2.90;75.40
13115;DHT22;6623;52.120;8.660;2022-12-11T16:15:38;3.00;75.30
13115;DHT22;6623;52.120;8.660;2022-12-11T16:18:10;3.00;75.30
13115;DHT22;6623;52.120;8.660;2022-12-11T16:20:38;3.00;75.30
13115;DHT22;6623;52.120;8.660;2022-12-11T16:23:04;3.10;75.20
13115;DHT22;6623;52.120;8.660;2022-12-11T16:25:30;3.10;75.10
13115;DHT22;6623;52.120;8.660;2022-12-11T16:27:58;3.10;74.90
13115;DHT22;6623;52.120;8.660;2022-12-11T16:30:25;2.90;74.80
13115;DHT22;6623;52.120;8.660;2022-12-11T16:32:51;3.10;74.80
13115;DHT22;6623;52.120;8.660;2022-12-11T16:35:17;3.10;74.80
13115;DHT22;6623;52.120;8.660;2022-12-11T16:37:43;3.10;75.60
13115;DHT22;6623;52.120;8.660;2022-12-11T16:40:09;3.00;74.90
13115;DHT22;6623;52.120;8.660;2022-12-11T16:42:36;3.00;75.00
13115;DHT22;6623;52.120;8.660;2022-12-11T16:45:05;3.10;75.10
13115;DHT22;6623;52.120;8.660;2022-12-11T16:47:31;3.00;75.10
13115;DHT22;6623;52.120;8.660;2022-12-11T16:49:57;3.00;75.10
13115;DHT22;6623;52.120;8.660;2022-12-11T16:52:23;3.00;75.10
13115;DHT22;6623;52.120;8.660;2022-12-11T16:54:49;3.00;75.20
13115;DHT22;6623;52.120;8.660;2022-12-11T16:57:14;3.00;75.30
13115;DHT22;6623;52.120;8.660;2022-12-11T16:59:40;3.00;75.50
13115;DHT22;6623;52.120;8.660;2022-12-11T17:02:09;3.00;75.50
13115;DHT22;6623;52.120;8.660;2022-12-11T17:04:37;3.00;75.50
13115;DHT22;6623;52.120;8.660;2022-12-11T17:07:03;3.00;75.50
13115;DHT22;6623;52.120;8.660;2022-12-11T17:09:29;3.00;75.50
13115;DHT22;6623;52.120;8.660;2022-12-11T17:11:55;2.90;75.50
13115;DHT22;6623;52.120;8.660;2022-12-11T17:14:20;2.90;75.60
13115;DHT22;6623;52.120;8.660;2022-12-11T17:16:46;2.90;75.80
13115;DHT22;6623;52.120;8.660;2022-12-11T17:19:12;2.90;75.80
13115;DHT22;6623;52.120;8.660;2022-12-11T17:21:38;2.90;75.60
13115;DHT22;6623;52.120;8.660;2022-12-11T17:24:04;3.00;75.80
13115;DHT22;6623;52.120;8.660;2022-12-11T17:26:30;2.90;75.90
13115;DHT22;6623;52.120;8.660;2022-12-11T17:28:56;3.20;76.10
13115;DHT22;6623;52.120;8.660;2022-12-11T17:31:22;2.90;76.00